createdAt,value
2023-02-28T00:02:57.316Z,6.45
2023-02-28T00:08:00.255Z,5.47
2023-02-28T00:13:05.612Z,16.80
2023-02-28T00:18:09.815Z,6.35
2023-02-28T00:23:12.650Z,8.30
2023-02-28T00:28:15.950Z,6.85
2023-02-28T00:33:20.579Z,5.32
2023-02-28T00:38:24.001Z,5.70
2023-02-28T00:43:26.812Z,13.90
2023-02-28T00:48:31.234Z,7.00
2023-02-28T00:53:34.480Z,8.07
2023-02-28T00:58:37.310Z,13.40
2023-02-28T01:03:41.561Z,6.18
2023-02-28T01:08:44.533Z,7.15
2023-02-28T01:13:48.156Z,8.18
2023-02-28T01:18:52.295Z,9.65
2023-02-28T01:23:59.277Z,12.23
2023-02-28T01:29:02.113Z,10.02
2023-02-28T01:34:06.402Z,10.85
2023-02-28T01:39:09.150Z,6.28
2023-02-28T01:44:45.229Z,5.85
2023-02-28T01:49:50.258Z,10.10
2023-02-28T01:54:55.924Z,5.97
2023-02-28T02:00:03.053Z,8.80
2023-02-28T02:05:20.031Z,6.55
2023-02-28T02:10:29.352Z,5.78
2023-02-28T02:15:36.357Z,6.78
2023-02-28T02:21:35.047Z,8.73
2023-02-28T02:27:06.029Z,6.53
2023-02-28T02:32:45.339Z,7.95
2023-02-28T02:37:54.458Z,5.45
2023-02-28T02:43:02.548Z,6.70
2023-02-28T02:48:10.548Z,7.18
2023-02-28T02:53:19.703Z,5.43
2023-02-28T02:58:26.843Z,8.95
2023-02-28T03:03:31.977Z,9.13
2023-02-28T03:08:38.677Z,5.72
2023-02-28T03:13:54.072Z,8.63
2023-02-28T03:19:09.041Z,9.18
2023-02-28T03:24:20.620Z,10.23
2023-02-28T03:29:30.548Z,8.32
2023-02-28T03:34:36.253Z,6.82
2023-02-28T03:39:44.950Z,8.55
2023-02-28T03:44:52.942Z,9.98
2023-02-28T03:49:58.805Z,6.72
2023-02-28T03:55:08.163Z,11.57
2023-02-28T04:00:16.369Z,7.57
2023-02-28T04:05:19.222Z,7.40
2023-02-28T04:10:24.047Z,9.65
2023-02-28T04:15:28.342Z,6.30
2023-02-28T04:20:31.124Z,6.75
2023-02-28T04:25:35.338Z,7.18
2023-02-28T04:30:40.106Z,8.00
2023-02-28T04:35:42.928Z,6.28
2023-02-28T04:40:47.051Z,5.72
2023-02-28T04:45:50.179Z,5.35
2023-02-28T04:50:53.039Z,5.22
2023-02-28T04:55:57.800Z,6.30
2023-02-28T05:01:04.784Z,5.50
2023-02-28T05:06:07.641Z,7.45
2023-02-28T05:11:17.366Z,5.15
2023-02-28T05:16:21.171Z,6.63
2023-02-28T05:21:31.703Z,8.27
2023-02-28T05:26:38.714Z,14.32
2023-02-28T05:31:42.134Z,7.57
2023-02-28T05:36:45.240Z,10.35
2023-02-28T05:41:49.413Z,8.63
2023-02-28T05:46:53.366Z,13.30
2023-02-28T05:51:56.123Z,8.30
2023-02-28T05:57:00.194Z,5.97
2023-02-28T06:02:02.960Z,9.68
2023-02-28T06:07:06.143Z,6.95
2023-02-28T06:12:11.171Z,6.82
2023-02-28T06:17:14.349Z,9.95
2023-02-28T06:22:17.084Z,15.25
2023-02-28T06:27:21.591Z,6.60
2023-02-28T06:32:25.223Z,9.40
2023-02-28T06:37:28.110Z,10.02
2023-02-28T06:42:33.284Z,13.35
2023-02-28T06:47:36.006Z,6.25
2023-02-28T06:52:39.348Z,6.55
2023-02-28T06:57:43.689Z,9.50
2023-02-28T07:02:47.216Z,5.28
2023-02-28T07:07:50.232Z,9.25
2023-02-28T07:12:55.690Z,9.07
2023-02-28T07:17:58.840Z,5.95
2023-02-28T07:23:01.802Z,9.80
2023-02-28T07:28:06.448Z,9.45
2023-02-28T07:33:09.474Z,8.82
2023-02-28T07:38:13.536Z,5.45
2023-02-28T07:43:17.850Z,7.72
2023-02-28T07:48:20.676Z,8.68
2023-02-28T07:53:23.944Z,17.90
2023-02-28T07:58:29.740Z,19.27
2023-02-28T08:03:32.478Z,18.98
2023-02-28T08:08:38.733Z,11.95
2023-02-28T08:13:44.793Z,14.07
2023-02-28T08:18:47.821Z,5.07
2023-02-28T08:23:52.280Z,6.78
2023-02-28T08:29:00.368Z,19.70
2023-02-28T08:34:08.221Z,9.18
2023-02-28T08:39:11.150Z,17.70
2023-02-28T08:44:15.674Z,8.52
2023-02-28T08:49:18.980Z,7.47
2023-02-28T08:54:21.740Z,5.13
2023-02-28T08:59:25.904Z,9.52
2023-02-28T09:04:31.670Z,7.50
2023-02-28T09:09:34.603Z,14.93
2023-02-28T09:14:39.338Z,7.50
2023-02-28T09:19:42.181Z,5.72
2023-02-28T09:24:46.626Z,9.18
2023-02-28T09:29:50.913Z,4.35
2023-02-28T09:34:53.704Z,9.15
2023-02-28T09:39:56.494Z,4.75
2023-02-28T09:45:02.502Z,8.63
2023-02-28T09:50:15.341Z,21.73
2023-02-28T09:55:35.299Z,30.83
2023-02-28T10:00:42.694Z,16.75
2023-02-28T10:05:52.182Z,10.77
2023-02-28T10:10:59.465Z,4.30
2023-02-28T10:16:08.450Z,8.50
2023-02-28T10:21:20.930Z,10.85
2023-02-28T10:26:24.942Z,5.25
2023-02-28T10:31:29.543Z,7.60
2023-02-28T10:36:34.090Z,4.88
2023-02-28T10:41:44.774Z,7.72
2023-02-28T10:46:52.312Z,10.05
2023-02-28T10:51:58.406Z,9.48
2023-02-28T10:57:19.349Z,9.20
2023-02-28T11:02:36.583Z,9.52
2023-02-28T11:07:52.921Z,8.75
2023-02-28T11:18:20.728Z,6.05
2023-02-28T11:23:25.778Z,4.68
2023-02-28T11:28:32.008Z,7.78
2023-02-28T11:33:45.884Z,13.10
2023-02-28T11:38:50.415Z,8.65
2023-02-28T11:44:12.245Z,6.07
2023-02-28T11:49:36.783Z,8.40
2023-02-28T11:55:01.381Z,7.38
2023-02-28T12:00:18.084Z,8.88
2023-02-28T12:05:32.496Z,5.45
2023-02-28T12:10:44.998Z,11.13
2023-02-28T12:16:28.824Z,10.13
2023-02-28T12:21:47.321Z,8.93
2023-02-28T12:26:52.819Z,12.02
2023-02-28T12:32:05.088Z,7.95
2023-02-28T12:37:16.309Z,7.70
2023-02-28T12:42:25.555Z,8.02
2023-02-28T12:47:29.466Z,9.70
2023-02-28T12:52:41.745Z,13.70
2023-02-28T12:57:54.431Z,8.10
2023-02-28T13:03:17.929Z,11.20
2023-02-28T13:08:52.157Z,10.20
2023-02-28T13:14:00.964Z,6.90
2023-02-28T13:19:13.484Z,11.95
2023-02-28T13:24:45.106Z,10.05
2023-02-28T13:29:49.511Z,16.15
2023-02-28T13:35:19.441Z,12.80
2023-02-28T13:40:38.208Z,23.10
2023-02-28T13:45:47.938Z,14.27
2023-02-28T13:50:50.830Z,8.98
2023-02-28T13:56:01.901Z,9.55
2023-02-28T14:01:17.548Z,7.65
2023-02-28T14:06:27.402Z,11.07
2023-02-28T14:11:37.148Z,12.48
2023-02-28T14:16:44.531Z,6.00
2023-02-28T14:22:02.487Z,8.50
2023-02-28T14:27:23.383Z,8.70
2023-02-28T14:32:34.759Z,9.70
2023-02-28T14:37:42.044Z,8.45
2023-02-28T14:42:57.192Z,8.38
2023-02-28T14:48:02.418Z,12.68
2023-02-28T14:53:06.134Z,17.00
2023-02-28T14:58:24.815Z,7.95
2023-02-28T15:03:33.926Z,10.85
2023-02-28T15:08:37.389Z,16.55
2023-02-28T15:13:45.945Z,12.55
2023-02-28T15:18:53.623Z,10.52
2023-02-28T15:24:00.928Z,8.57
2023-02-28T15:34:21.064Z,28.55
2023-02-28T15:39:28.245Z,6.63
2023-02-28T15:44:38.248Z,11.85
2023-02-28T15:49:47.355Z,9.45
2023-02-28T15:54:50.666Z,25.00
2023-02-28T15:59:58.363Z,14.90
2023-02-28T16:05:22.640Z,11.02
2023-02-28T16:10:28.503Z,9.10
2023-02-28T16:15:42.422Z,23.77
2023-02-28T16:20:45.674Z,15.68
2023-02-28T16:25:48.552Z,20.08
2023-02-28T16:30:55.389Z,19.40
2023-02-28T16:35:58.554Z,11.20
2023-02-28T16:41:02.177Z,13.07
2023-02-28T16:46:07.566Z,18.95
2023-02-28T16:51:13.853Z,9.68
2023-02-28T16:56:20.366Z,9.20
2023-02-28T17:01:24.657Z,22.93
2023-02-28T17:06:30.465Z,17.95
2023-02-28T17:11:33.697Z,29.23
2023-02-28T17:16:42.795Z,26.35
2023-02-28T17:21:45.875Z,48.53
2023-02-28T17:26:50.092Z,55.08
2023-02-28T17:31:54.514Z,56.60
2023-02-28T17:36:58.678Z,40.78
2023-02-28T17:42:01.564Z,52.85
2023-02-28T17:47:06.080Z,99.72
2023-02-28T17:52:09.581Z,73.18
2023-02-28T17:57:16.693Z,39.63
2023-02-28T18:02:20.826Z,40.97
2023-02-28T18:07:25.307Z,47.95
2023-02-28T18:12:30.719Z,48.97
2023-02-28T18:17:35.065Z,52.20
2023-02-28T18:22:39.001Z,56.25
2023-02-28T18:27:57.961Z,62.13
2023-02-28T18:33:05.449Z,52.67
2023-02-28T18:38:11.764Z,63.72
2023-02-28T18:43:14.657Z,56.87
2023-02-28T18:48:19.913Z,48.55
2023-02-28T18:53:22.929Z,39.97
2023-02-28T18:58:28.546Z,57.25
2023-02-28T19:03:34.822Z,56.78
2023-02-28T19:08:40.975Z,58.00
2023-02-28T19:13:44.343Z,50.45
2023-02-28T19:18:48.756Z,49.10
2023-02-28T19:23:51.982Z,30.90
2023-02-28T19:28:55.027Z,27.92
2023-02-28T19:33:59.296Z,22.58
2023-02-28T19:39:02.428Z,19.67
2023-02-28T19:44:05.437Z,47.70
2023-02-28T19:49:09.653Z,67.25
2023-02-28T19:54:12.514Z,32.28
2023-02-28T19:59:21.834Z,26.30
2023-02-28T20:04:35.939Z,21.92
2023-02-28T20:09:39.649Z,21.55
2023-02-28T20:14:43.686Z,72.22
2023-02-28T20:19:47.940Z,35.22
2023-02-28T20:24:50.717Z,23.25
2023-02-28T20:29:53.709Z,22.88
2023-02-28T20:34:57.800Z,12.45
2023-02-28T20:40:00.637Z,21.98
2023-02-28T20:45:04.863Z,19.52
2023-02-28T20:50:11.063Z,14.18
2023-02-28T20:55:14.893Z,17.07
2023-02-28T21:00:19.284Z,12.45
2023-02-28T21:12:04.488Z,15.73
2023-02-28T21:17:11.043Z,15.13
2023-02-28T21:22:16.329Z,14.40
2023-02-28T21:27:19.233Z,20.35
2023-02-28T21:32:22.211Z,19.67
2023-02-28T21:37:26.636Z,20.17
2023-02-28T21:42:29.478Z,26.10
2023-02-28T21:47:32.540Z,17.05
2023-02-28T21:52:36.838Z,19.90
2023-02-28T21:57:39.847Z,18.45
2023-02-28T22:02:42.747Z,20.52
2023-02-28T22:07:47.075Z,20.00
2023-02-28T22:12:49.833Z,23.77
2023-02-28T22:17:52.696Z,27.67
2023-02-28T22:22:57.487Z,17.15
2023-02-28T22:28:00.309Z,23.92
2023-02-28T22:33:03.135Z,21.70
2023-02-28T22:38:07.680Z,23.30
2023-02-28T22:43:12.185Z,21.63
2023-02-28T22:48:14.985Z,19.55
2023-02-28T22:53:19.120Z,19.85
2023-02-28T22:58:21.924Z,21.02
2023-02-28T23:03:25.862Z,22.65
2023-02-28T23:08:29.991Z,20.75
2023-02-28T23:13:32.916Z,28.70
2023-02-28T23:18:36.173Z,24.40
2023-02-28T23:23:40.350Z,26.30
2023-02-28T23:28:43.687Z,23.77
2023-02-28T23:33:46.604Z,30.13
2023-02-28T23:38:52.462Z,31.25
2023-02-28T23:43:55.312Z,27.67
2023-02-28T23:48:59.634Z,25.70
2023-02-28T23:54:04.007Z,31.75
2023-02-28T23:59:07.103Z,26.40
